Iskenderun, Turkey

1:51 PM EEST on August 30, 2016 (GMT +0300)
Incirlik Air Base | | Change Station

Elev 217 ft 37.00 °N, 35.43 °E | Updated 31 minutes ago

Clear
Clear
93 °F
Feels Like 95 °F
N
6
Wind Variable Wind from SE

Today
High -- | Low -- °F
--% Chance of Precip.
Yesterday
High -- | Low -- °F
Precip. -- in
Pressure 29.80 in
Visibility -9999.0 miles
Clouds
Heat Index 95 °F
Dew Point 64 °F
Humidity 38%
Rainfall 0.00 in
Snow Depth Not available.
6:05 AM 7:06 PM
Waning Crescent, 4% visible
METAR LTAG 301020Z 14005KT CAVOK 34/18 Q1009 NOSIG
Pressure 29.80 in
Visibility -9999.0 miles
Clouds
Heat Index 95 °F
Dew Point 64 °F
Humidity 38%
Rainfall 0.00 in
Snow Depth Not available.
6:05 AM 7:06 PM
Waning Crescent, 4% visible
METAR LTAG 301020Z 14005KT CAVOK 34/18 Q1009 NOSIG

10-Day Weather Forecast

×

Almanac

Astronomy

Aug. 30, 2016 Rise Set
Actual Time
Civil Twilight
Nautical Twilight
Astronomical Twilight
Moon
Length of Visible Light
Length of Day
Tomorrow will be .
, % of the Moon is Illuminated

Today's Extremes

Country Highs Country Lows

Community

WunderPhotos

Upload Photos

1,935,809 photos uploaded!

WunderBlog® & News

Nearby

Air Quality

  Air Quality AQ Index Pollutant
Not available.

Snow Depth

Station Depth Elevation

Earthquake Activity

City Distance Mag. Time & Date
Minimum magnitude displayed is 2.5.

Coastal Water Temperatures

Place Temperature

Stations

Nearby Weather Stations

Station Location Temp. Windchill Dew Point Humidity Wind Precip. Elev Updated Type